sensor_id;sensor_type;location;lat;lon;timestamp;P1;durP1;ratioP1;P2;durP2;ratioP2
63900;SDS011;50538;53.482;10.294;2023-05-10T00:13:08;3.85;;;1.70;;
63900;SDS011;50538;53.482;10.294;2023-05-10T00:23:14;5.30;;;1.75;;
63900;SDS011;50538;53.482;10.294;2023-05-10T00:44:08;2.53;;;1.73;;
63900;SDS011;50538;53.482;10.294;2023-05-10T00:54:37;6.50;;;1.77;;
63900;SDS011;50538;53.482;10.294;2023-05-10T01:04:48;3.30;;;1.80;;
63900;SDS011;50538;53.482;10.294;2023-05-10T01:14:49;2.55;;;1.55;;
63900;SDS011;50538;53.482;10.294;2023-05-10T01:35:00;4.70;;;1.45;;
63900;SDS011;50538;53.482;10.294;2023-05-10T01:45:08;4.65;;;1.60;;
63900;SDS011;50538;53.482;10.294;2023-05-10T01:55:13;3.08;;;1.65;;
63900;SDS011;50538;53.482;10.294;2023-05-10T02:05:16;4.70;;;1.93;;
63900;SDS011;50538;53.482;10.294;2023-05-10T02:15:18;3.72;;;1.50;;
63900;SDS011;50538;53.482;10.294;2023-05-10T02:25:23;2.97;;;1.60;;
63900;SDS011;50538;53.482;10.294;2023-05-10T02:35:25;9.98;;;1.83;;
63900;SDS011;50538;53.482;10.294;2023-05-10T02:45:28;4.57;;;1.73;;
63900;SDS011;50538;53.482;10.294;2023-05-10T02:55:35;3.83;;;1.85;;
63900;SDS011;50538;53.482;10.294;2023-05-10T03:05:49;4.22;;;1.92;;
63900;SDS011;50538;53.482;10.294;2023-05-10T03:16:22;5.53;;;1.88;;
63900;SDS011;50538;53.482;10.294;2023-05-10T03:26:46;2.80;;;1.65;;
63900;SDS011;50538;53.482;10.294;2023-05-10T03:36:48;4.47;;;1.88;;
63900;SDS011;50538;53.482;10.294;2023-05-10T03:47:09;4.78;;;1.70;;
63900;SDS011;50538;53.482;10.294;2023-05-10T04:08:34;4.55;;;2.10;;
63900;SDS011;50538;53.482;10.294;2023-05-10T04:19:33;3.40;;;1.95;;
63900;SDS011;50538;53.482;10.294;2023-05-10T04:40:22;6.88;;;1.90;;
63900;SDS011;50538;53.482;10.294;2023-05-10T04:51:07;4.20;;;1.93;;
63900;SDS011;50538;53.482;10.294;2023-05-10T05:32:27;5.07;;;2.00;;
63900;SDS011;50538;53.482;10.294;2023-05-10T05:42:43;4.90;;;2.20;;
63900;SDS011;50538;53.482;10.294;2023-05-10T05:53:02;3.55;;;1.90;;
63900;SDS011;50538;53.482;10.294;2023-05-10T06:14:30;3.83;;;1.92;;
63900;SDS011;50538;53.482;10.294;2023-05-10T06:24:46;4.53;;;2.15;;
63900;SDS011;50538;53.482;10.294;2023-05-10T06:46:16;5.50;;;2.10;;
63900;SDS011;50538;53.482;10.294;2023-05-10T06:57:07;3.97;;;1.73;;
63900;SDS011;50538;53.482;10.294;2023-05-10T07:17:33;6.13;;;2.40;;
63900;SDS011;50538;53.482;10.294;2023-05-10T07:27:38;4.40;;;2.03;;
63900;SDS011;50538;53.482;10.294;2023-05-10T07:49:00;4.18;;;2.05;;
63900;SDS011;50538;53.482;10.294;2023-05-10T07:59:07;6.57;;;2.27;;
63900;SDS011;50538;53.482;10.294;2023-05-10T08:09:24;4.53;;;2.42;;
63900;SDS011;50538;53.482;10.294;2023-05-10T08:19:33;5.30;;;2.10;;
63900;SDS011;50538;53.482;10.294;2023-05-10T08:40:25;3.55;;;1.95;;
63900;SDS011;50538;53.482;10.294;2023-05-10T08:50:26;6.07;;;2.33;;
63900;SDS011;50538;53.482;10.294;2023-05-10T09:01:11;7.57;;;2.72;;
63900;SDS011;50538;53.482;10.294;2023-05-10T09:11:18;5.32;;;2.35;;
63900;SDS011;50538;53.482;10.294;2023-05-10T09:21:30;4.75;;;2.30;;
63900;SDS011;50538;53.482;10.294;2023-05-10T09:31:45;6.28;;;3.00;;
63900;SDS011;50538;53.482;10.294;2023-05-10T09:41:47;4.80;;;2.47;;
63900;SDS011;50538;53.482;10.294;2023-05-10T09:51:59;6.30;;;2.50;;
63900;SDS011;50538;53.482;10.294;2023-05-10T10:02:01;4.47;;;2.60;;
63900;SDS011;50538;53.482;10.294;2023-05-10T10:12:02;6.10;;;2.95;;
63900;SDS011;50538;53.482;10.294;2023-05-10T10:22:03;4.80;;;2.40;;
63900;SDS011;50538;53.482;10.294;2023-05-10T10:42:43;4.88;;;2.45;;
63900;SDS011;50538;53.482;10.294;2023-05-10T10:52:45;7.00;;;2.83;;
63900;SDS011;50538;53.482;10.294;2023-05-10T11:13:03;7.53;;;3.60;;
63900;SDS011;50538;53.482;10.294;2023-05-10T11:23:12;6.28;;;3.10;;
63900;SDS011;50538;53.482;10.294;2023-05-10T11:33:16;6.85;;;2.75;;
63900;SDS011;50538;53.482;10.294;2023-05-10T11:43:17;6.00;;;3.28;;
63900;SDS011;50538;53.482;10.294;2023-05-10T11:53:19;7.85;;;3.58;;
63900;SDS011;50538;53.482;10.294;2023-05-10T12:03:22;6.40;;;3.25;;
63900;SDS011;50538;53.482;10.294;2023-05-10T12:14:21;6.15;;;3.08;;
63900;SDS011;50538;53.482;10.294;2023-05-10T12:24:24;7.90;;;3.10;;
63900;SDS011;50538;53.482;10.294;2023-05-10T12:45:29;7.30;;;4.03;;
63900;SDS011;50538;53.482;10.294;2023-05-10T12:56:08;5.78;;;3.00;;
63900;SDS011;50538;53.482;10.294;2023-05-10T13:06:16;6.78;;;3.15;;
63900;SDS011;50538;53.482;10.294;2023-05-10T13:16:24;6.38;;;3.45;;
63900;SDS011;50538;53.482;10.294;2023-05-10T13:26:36;6.68;;;2.85;;
63900;SDS011;50538;53.482;10.294;2023-05-10T13:36:38;4.55;;;2.17;;
63900;SDS011;50538;53.482;10.294;2023-05-10T13:47:46;9.82;;;4.85;;
63900;SDS011;50538;53.482;10.294;2023-05-10T13:57:54;4.40;;;2.55;;
63900;SDS011;50538;53.482;10.294;2023-05-10T14:30:27;5.35;;;2.78;;
63900;SDS011;50538;53.482;10.294;2023-05-10T14:40:43;6.47;;;2.95;;
63900;SDS011;50538;53.482;10.294;2023-05-10T15:01:55;5.85;;;2.95;;
63900;SDS011;50538;53.482;10.294;2023-05-10T15:23:05;6.82;;;3.00;;
63900;SDS011;50538;53.482;10.294;2023-05-10T15:33:11;5.57;;;2.35;;
63900;SDS011;50538;53.482;10.294;2023-05-10T15:43:22;4.10;;;2.17;;
63900;SDS011;50538;53.482;10.294;2023-05-10T15:53:22;7.28;;;2.60;;
63900;SDS011;50538;53.482;10.294;2023-05-10T16:03:24;3.92;;;2.17;;
63900;SDS011;50538;53.482;10.294;2023-05-10T16:13:34;4.80;;;2.20;;
63900;SDS011;50538;53.482;10.294;2023-05-10T16:23:45;4.60;;;2.13;;
63900;SDS011;50538;53.482;10.294;2023-05-10T16:33:55;4.78;;;2.22;;
63900;SDS011;50538;53.482;10.294;2023-05-10T16:43:55;3.55;;;1.83;;
63900;SDS011;50538;53.482;10.294;2023-05-10T16:53:58;6.77;;;1.97;;
63900;SDS011;50538;53.482;10.294;2023-05-10T17:04:04;3.63;;;1.95;;
63900;SDS011;50538;53.482;10.294;2023-05-10T17:14:06;3.70;;;1.80;;
63900;SDS011;50538;53.482;10.294;2023-05-10T17:24:06;2.33;;;1.58;;
63900;SDS011;50538;53.482;10.294;2023-05-10T17:34:07;3.20;;;1.80;;
63900;SDS011;50538;53.482;10.294;2023-05-10T17:44:07;3.40;;;1.60;;
63900;SDS011;50538;53.482;10.294;2023-05-10T17:54:08;2.80;;;1.48;;
63900;SDS011;50538;53.482;10.294;2023-05-10T18:04:09;2.83;;;1.50;;
63900;SDS011;50538;53.482;10.294;2023-05-10T18:14:11;2.95;;;1.90;;
63900;SDS011;50538;53.482;10.294;2023-05-10T18:24:12;3.25;;;1.60;;
63900;SDS011;50538;53.482;10.294;2023-05-10T18:34:15;4.18;;;1.80;;
63900;SDS011;50538;53.482;10.294;2023-05-10T18:44:21;4.00;;;2.28;;
63900;SDS011;50538;53.482;10.294;2023-05-10T18:55:01;5.32;;;2.00;;
63900;SDS011;50538;53.482;10.294;2023-05-10T19:05:07;3.67;;;1.92;;
63900;SDS011;50538;53.482;10.294;2023-05-10T19:15:31;4.47;;;2.10;;
63900;SDS011;50538;53.482;10.294;2023-05-10T19:26:21;3.45;;;2.05;;
63900;SDS011;50538;53.482;10.294;2023-05-10T19:36:30;3.75;;;1.77;;
63900;SDS011;50538;53.482;10.294;2023-05-10T19:46:36;3.55;;;1.75;;
63900;SDS011;50538;53.482;10.294;2023-05-10T19:56:37;3.97;;;1.88;;
63900;SDS011;50538;53.482;10.294;2023-05-10T20:06:38;3.70;;;1.77;;
63900;SDS011;50538;53.482;10.294;2023-05-10T20:16:40;5.03;;;2.05;;
63900;SDS011;50538;53.482;10.294;2023-05-10T20:26:43;4.32;;;2.30;;
63900;SDS011;50538;53.482;10.294;2023-05-10T20:36:45;4.47;;;1.98;;
63900;SDS011;50538;53.482;10.294;2023-05-10T20:46:51;3.00;;;1.55;;
63900;SDS011;50538;53.482;10.294;2023-05-10T20:56:52;5.80;;;2.40;;
63900;SDS011;50538;53.482;10.294;2023-05-10T21:06:53;4.13;;;2.00;;
63900;SDS011;50538;53.482;10.294;2023-05-10T21:16:55;3.92;;;1.77;;
63900;SDS011;50538;53.482;10.294;2023-05-10T21:26:58;4.80;;;2.13;;
63900;SDS011;50538;53.482;10.294;2023-05-10T21:37:00;5.88;;;2.67;;
63900;SDS011;50538;53.482;10.294;2023-05-10T21:47:02;4.18;;;2.05;;
63900;SDS011;50538;53.482;10.294;2023-05-10T21:57:05;5.18;;;2.75;;
63900;SDS011;50538;53.482;10.294;2023-05-10T22:07:07;5.65;;;2.63;;
63900;SDS011;50538;53.482;10.294;2023-05-10T22:17:15;5.15;;;2.83;;
63900;SDS011;50538;53.482;10.294;2023-05-10T22:27:17;6.90;;;3.45;;
63900;SDS011;50538;53.482;10.294;2023-05-10T22:37:19;7.70;;;3.88;;
63900;SDS011;50538;53.482;10.294;2023-05-10T22:47:21;6.70;;;2.95;;
63900;SDS011;50538;53.482;10.294;2023-05-10T22:57:22;8.48;;;3.38;;
63900;SDS011;50538;53.482;10.294;2023-05-10T23:07:23;7.70;;;3.35;;
63900;SDS011;50538;53.482;10.294;2023-05-10T23:17:52;9.35;;;4.22;;
63900;SDS011;50538;53.482;10.294;2023-05-10T23:28:18;7.55;;;2.95;;
63900;SDS011;50538;53.482;10.294;2023-05-10T23:38:38;6.93;;;2.60;;
63900;SDS011;50538;53.482;10.294;2023-05-10T23:48:39;6.75;;;2.67;;
63900;SDS011;50538;53.482;10.294;2023-05-10T23:59:01;6.57;;;2.42;;
